createdAt,value
2018-01-24T00:01:34.079Z,59.80
2018-01-24T00:04:02.196Z,59.80
2018-01-24T00:06:28.448Z,60.80
2018-01-24T00:08:54.669Z,59.60
2018-01-24T00:11:21.575Z,59.80
2018-01-24T00:13:51.655Z,60.20
2018-01-24T00:16:17.968Z,60.20
2018-01-24T00:18:44.219Z,59.70
2018-01-24T00:21:10.442Z,59.50
2018-01-24T00:23:37.387Z,59.90
2018-01-24T00:26:03.760Z,59.90
2018-01-24T00:28:30.048Z,59.80
2018-01-24T00:30:56.321Z,60.00
2018-01-24T00:33:25.204Z,59.90
2018-01-24T00:35:51.650Z,60.00
2018-01-24T00:38:17.980Z,60.00
2018-01-24T00:40:44.213Z,60.10
2018-01-24T00:43:10.529Z,59.60
2018-01-24T00:45:36.968Z,60.30
2018-01-24T00:48:04.192Z,60.00
2018-01-24T00:50:30.638Z,60.20
2018-01-24T00:52:56.864Z,60.30
2018-01-24T00:55:23.084Z,60.50
2018-01-24T00:57:49.437Z,60.30
2018-01-24T01:00:15.740Z,60.40
2018-01-24T01:02:42.037Z,60.20
2018-01-24T01:05:08.573Z,60.30
2018-01-24T01:07:35.009Z,60.60
2018-01-24T01:10:01.240Z,60.60
2018-01-24T01:12:44.525Z,60.90
2018-01-24T01:15:10.968Z,60.70
2018-01-24T01:17:37.944Z,60.80
2018-01-24T01:20:06.366Z,60.80
2018-01-24T01:22:32.786Z,60.50
2018-01-24T01:24:59.228Z,60.70
2018-01-24T01:27:26.177Z,60.30
2018-01-24T01:29:52.807Z,60.30
2018-01-24T01:32:19.075Z,61.30
2018-01-24T01:34:46.196Z,61.70
2018-01-24T01:37:12.704Z,61.70
2018-01-24T01:39:38.981Z,61.10
2018-01-24T01:42:05.191Z,61.10
2018-01-24T01:44:31.521Z,61.90
2018-01-24T01:46:58.645Z,61.70
2018-01-24T01:49:25.246Z,61.70
2018-01-24T01:51:51.664Z,61.10
2018-01-24T01:54:19.673Z,61.90
2018-01-24T01:56:46.610Z,61.40
2018-01-24T01:59:12.968Z,62.00
2018-01-24T02:01:39.237Z,61.20
2018-01-24T02:04:05.973Z,61.40
2018-01-24T02:06:32.235Z,61.80
2018-01-24T02:08:58.650Z,61.60
2018-01-24T02:11:24.828Z,62.00
2018-01-24T02:13:51.193Z,61.80
2018-01-24T02:16:19.624Z,62.00
2018-01-24T02:18:45.804Z,62.00
2018-01-24T02:21:11.989Z,62.00
2018-01-24T02:23:39.617Z,62.00
2018-01-24T02:26:06.517Z,62.00
2018-01-24T02:28:32.724Z,62.00
2018-01-24T02:31:06.100Z,62.00
2018-01-24T02:33:32.341Z,62.00
2018-01-24T02:35:59.670Z,62.00
2018-01-24T02:38:38.821Z,62.00
2018-01-24T02:41:05.860Z,62.00
2018-01-24T02:43:32.065Z,62.00
2018-01-24T02:45:59.779Z,62.00
2018-01-24T02:48:26.953Z,62.00
2018-01-24T02:50:53.301Z,62.00
2018-01-24T02:53:19.484Z,62.00
2018-01-24T02:55:46.840Z,62.00
2018-01-24T02:58:16.264Z,62.00
2018-01-24T03:00:42.707Z,62.00
2018-01-24T03:06:06.563Z,62.20
2018-01-24T03:08:33.121Z,62.70
2018-01-24T03:10:59.424Z,62.10
2018-01-24T03:13:25.792Z,62.40
2018-01-24T03:15:52.156Z,62.10
2018-01-24T03:18:18.449Z,62.10
2018-01-24T03:20:52.595Z,62.20
2018-01-24T03:23:18.937Z,62.60
2018-01-24T03:25:45.114Z,62.40
2018-01-24T03:28:11.362Z,62.60
2018-01-24T03:33:21.164Z,62.20
2018-01-24T03:35:48.209Z,62.20
2018-01-24T03:38:25.935Z,62.30
2018-01-24T03:40:55.507Z,62.20
2018-01-24T03:43:21.905Z,62.20
2018-01-24T03:45:48.081Z,62.30
2018-01-24T03:48:14.323Z,62.20
2018-01-24T03:50:40.568Z,62.20
2018-01-24T03:53:06.825Z,62.20
2018-01-24T03:58:08.033Z,62.20
2018-01-24T04:00:34.357Z,62.20
2018-01-24T04:03:00.628Z,62.50
2018-01-24T04:05:26.876Z,62.60
2018-01-24T04:08:01.257Z,62.20
2018-01-24T04:10:30.708Z,62.20
2018-01-24T04:15:40.529Z,62.80
2018-01-24T04:18:36.670Z,63.40
2018-01-24T04:21:02.996Z,63.20
2018-01-24T04:23:29.203Z,63.30
2018-01-24T04:25:55.545Z,63.70
2018-01-24T04:28:21.771Z,63.70
2018-01-24T04:30:48.231Z,63.70
2018-01-24T04:33:14.577Z,63.90
2018-01-24T04:35:40.810Z,64.10
2018-01-24T04:38:12.146Z,64.10
2018-01-24T04:43:41.348Z,65.20
2018-01-24T04:46:07.571Z,64.60
2018-01-24T04:48:34.409Z,64.70
2018-01-24T04:51:00.704Z,64.60
2018-01-24T04:53:26.892Z,65.00
2018-01-24T04:55:54.174Z,65.20
2018-01-24T04:58:29.761Z,65.30
2018-01-24T05:00:56.435Z,65.50
2018-01-24T05:03:22.675Z,65.90
2018-01-24T05:05:49.657Z,66.10
2018-01-24T05:08:17.253Z,66.10
2018-01-24T05:10:43.645Z,66.60
2018-01-24T05:16:07.415Z,66.80
2018-01-24T05:18:33.611Z,66.80
2018-01-24T05:21:07.681Z,67.00
2018-01-24T05:23:33.896Z,66.90
2018-01-24T05:26:00.320Z,67.10
2018-01-24T05:28:26.623Z,67.30
2018-01-24T05:30:55.345Z,67.20
2018-01-24T05:33:37.567Z,67.30
2018-01-24T05:36:03.763Z,67.20
2018-01-24T05:38:30.007Z,67.60
2018-01-24T05:40:57.030Z,67.70
2018-01-24T05:43:23.354Z,67.70
2018-01-24T05:45:49.836Z,67.70
2018-01-24T05:48:16.098Z,67.70
2018-01-24T05:50:45.043Z,67.70
2018-01-24T05:53:12.141Z,68.00
2018-01-24T05:55:41.384Z,68.10
2018-01-24T05:58:07.937Z,67.90
2018-01-24T06:00:35.907Z,68.00
2018-01-24T06:03:02.130Z,68.00
2018-01-24T06:05:28.399Z,68.20
2018-01-24T06:07:54.776Z,68.50
2018-01-24T06:10:22.367Z,68.30
2018-01-24T06:12:48.705Z,68.50
2018-01-24T06:15:15.078Z,68.80
2018-01-24T06:17:41.249Z,68.60
2018-01-24T06:20:07.448Z,68.60
2018-01-24T06:22:34.425Z,68.80
2018-01-24T06:25:02.201Z,68.90
2018-01-24T06:27:28.399Z,68.90
2018-01-24T06:30:10.622Z,68.80
2018-01-24T06:32:37.225Z,68.80
2018-01-24T06:37:52.276Z,68.90
2018-01-24T06:40:19.482Z,68.90
2018-01-24T06:42:45.686Z,69.10
2018-01-24T06:45:12.079Z,69.30
2018-01-24T06:47:38.249Z,69.60
2018-01-24T06:50:04.471Z,69.60
2018-01-24T06:52:30.942Z,69.50
2018-01-24T06:54:57.155Z,69.70
2018-01-24T06:57:23.380Z,69.70
2018-01-24T06:59:49.602Z,69.60
2018-01-24T07:02:15.806Z,69.50
2018-01-24T07:04:42.727Z,69.90
2018-01-24T07:07:08.916Z,69.90
2018-01-24T07:09:35.320Z,69.60
2018-01-24T07:12:14.151Z,69.60
2018-01-24T07:14:43.191Z,69.60
2018-01-24T07:17:10.536Z,70.00
2018-01-24T07:19:36.748Z,70.00
2018-01-24T07:22:04.016Z,70.30
2018-01-24T07:24:30.275Z,70.30
2018-01-24T07:26:56.838Z,70.40
2018-01-24T07:29:27.631Z,70.50
2018-01-24T07:31:53.876Z,70.60
2018-01-24T07:34:21.915Z,70.70
2018-01-24T07:36:48.247Z,70.80
2018-01-24T07:39:14.448Z,70.60
2018-01-24T07:41:41.372Z,70.70
2018-01-24T07:44:07.741Z,70.70
2018-01-24T07:46:34.647Z,70.70
2018-01-24T07:49:00.815Z,70.70
2018-01-24T07:51:27.223Z,70.80
2018-01-24T07:53:53.431Z,70.90
2018-01-24T07:56:20.363Z,70.80
2018-01-24T07:58:46.652Z,70.80
2018-01-24T08:01:17.701Z,70.80
2018-01-24T08:03:43.903Z,71.00
2018-01-24T08:06:10.233Z,70.90
2018-01-24T08:08:36.523Z,71.20
2018-01-24T08:11:02.728Z,71.00
2018-01-24T08:13:29.164Z,71.20
2018-01-24T08:15:55.384Z,71.00
2018-01-24T08:18:21.544Z,70.90
2018-01-24T08:20:49.005Z,71.20
2018-01-24T08:23:16.272Z,71.10
2018-01-24T08:25:42.468Z,71.10
2018-01-24T08:28:08.676Z,71.20
2018-01-24T08:30:35.947Z,71.00
2018-01-24T08:33:02.203Z,70.90
2018-01-24T08:35:28.401Z,70.90
2018-01-24T08:37:54.576Z,70.60
2018-01-24T08:40:20.751Z,70.70
2018-01-24T08:42:46.911Z,70.30
2018-01-24T08:45:14.204Z,70.30
2018-01-24T08:47:40.496Z,70.10
2018-01-24T08:50:07.508Z,69.90
2018-01-24T08:52:33.716Z,70.30
2018-01-24T08:55:00.050Z,70.10
2018-01-24T08:57:26.417Z,70.30
2018-01-24T09:00:10.987Z,70.40
2018-01-24T09:02:55.532Z,70.40
2018-01-24T09:05:40.075Z,70.30
2018-01-24T09:08:25.417Z,70.80
2018-01-24T09:11:09.847Z,70.80
2018-01-24T09:13:54.392Z,71.00
2018-01-24T09:16:38.992Z,71.00
2018-01-24T09:19:23.616Z,71.10
2018-01-24T09:22:08.036Z,70.90
2018-01-24T09:24:56.149Z,71.30
2018-01-24T09:27:22.364Z,71.20
2018-01-24T09:29:48.576Z,71.70
2018-01-24T09:32:16.161Z,72.20
2018-01-24T09:34:42.334Z,72.40
2018-01-24T09:37:08.529Z,73.10
2018-01-24T09:39:34.925Z,72.60
2018-01-24T09:42:01.084Z,72.80
2018-01-24T09:44:28.385Z,72.50
2018-01-24T09:46:55.367Z,72.60
2018-01-24T09:49:22.680Z,72.30
2018-01-24T09:51:49.592Z,71.60
2018-01-24T09:54:15.809Z,71.60
2018-01-24T09:56:41.962Z,71.40
2018-01-24T09:59:08.539Z,70.90
2018-01-24T10:01:34.739Z,70.60
2018-01-24T10:04:01.101Z,70.30
2018-01-24T10:06:27.427Z,70.10
2018-01-24T10:08:53.600Z,69.70
2018-01-24T10:11:19.778Z,68.20
2018-01-24T10:13:46.164Z,68.00
2018-01-24T10:16:12.366Z,67.20
2018-01-24T10:18:39.612Z,66.00
2018-01-24T10:21:05.794Z,66.00
2018-01-24T10:23:32.052Z,65.70
2018-01-24T10:25:58.214Z,64.70
2018-01-24T10:28:24.367Z,64.80
2018-01-24T10:30:51.056Z,64.40
2018-01-24T10:33:17.236Z,64.50
2018-01-24T10:35:43.448Z,64.20
2018-01-24T10:38:09.789Z,64.50
2018-01-24T10:40:35.988Z,64.20
2018-01-24T10:43:04.025Z,64.20
2018-01-24T10:45:30.219Z,64.20
2018-01-24T10:47:56.490Z,64.40
2018-01-24T10:50:22.708Z,64.00
2018-01-24T10:52:49.695Z,64.10
2018-01-24T10:55:16.261Z,64.10
2018-01-24T10:57:44.212Z,64.40
2018-01-24T11:00:10.516Z,64.50
2018-01-24T11:02:36.746Z,64.90
2018-01-24T11:05:05.091Z,64.40
2018-01-24T11:07:32.659Z,64.40
2018-01-24T11:09:59.020Z,64.30
2018-01-24T11:12:26.328Z,64.10
2018-01-24T11:14:53.275Z,64.30
2018-01-24T11:17:19.703Z,64.30
2018-01-24T11:19:45.916Z,64.10
2018-01-24T11:22:12.178Z,63.90
2018-01-24T11:24:38.585Z,64.70
2018-01-24T11:27:05.592Z,64.90
2018-01-24T11:29:34.461Z,65.00
2018-01-24T11:32:03.485Z,66.30
2018-01-24T11:34:29.712Z,67.10
2018-01-24T11:36:55.896Z,68.20
2018-01-24T11:39:22.360Z,69.00
2018-01-24T11:41:48.604Z,69.10
2018-01-24T11:44:14.782Z,69.60
2018-01-24T11:46:41.482Z,69.80
2018-01-24T11:49:07.684Z,68.80
2018-01-24T11:51:33.896Z,69.90
2018-01-24T11:54:00.903Z,69.60
2018-01-24T11:56:27.233Z,69.60
2018-01-24T11:58:53.444Z,69.40
2018-01-24T12:01:20.383Z,68.50
2018-01-24T12:03:46.743Z,68.30
2018-01-24T12:06:13.665Z,68.00
2018-01-24T12:08:39.921Z,68.00
2018-01-24T12:11:06.322Z,68.30
2018-01-24T12:13:38.636Z,67.60
2018-01-24T12:16:05.607Z,67.00
2018-01-24T12:18:31.969Z,66.90
2018-01-24T12:20:58.171Z,66.90
2018-01-24T12:23:24.373Z,66.50
2018-01-24T12:25:50.722Z,66.30
2018-01-24T12:28:17.999Z,65.70
2018-01-24T12:30:45.041Z,65.50
2018-01-24T12:33:11.237Z,65.50
2018-01-24T12:35:37.671Z,65.60
2018-01-24T12:38:03.862Z,65.40
2018-01-24T12:40:30.872Z,65.30
2018-01-24T12:42:57.043Z,65.30
2018-01-24T12:45:24.169Z,64.80
2018-01-24T12:47:54.748Z,64.80
2018-01-24T12:50:23.636Z,65.70
2018-01-24T12:52:49.873Z,64.90
2018-01-24T12:55:16.248Z,64.80
2018-01-24T12:57:42.456Z,64.90
2018-01-24T13:00:08.712Z,65.00
2018-01-24T13:02:36.166Z,65.50
2018-01-24T13:05:03.220Z,65.10
2018-01-24T13:07:29.396Z,65.00
2018-01-24T13:09:56.536Z,65.80
2018-01-24T13:12:22.703Z,65.80
2018-01-24T13:14:49.660Z,66.10
2018-01-24T13:17:15.821Z,66.10
2018-01-24T13:19:42.181Z,66.30
2018-01-24T13:22:08.494Z,66.20
2018-01-24T13:24:34.729Z,66.00
2018-01-24T13:27:01.976Z,67.10
2018-01-24T13:29:28.347Z,66.20
2018-01-24T13:31:54.548Z,66.50
2018-01-24T13:34:20.908Z,66.40
2018-01-24T13:36:47.176Z,66.20
2018-01-24T13:39:13.361Z,66.30
2018-01-24T13:41:40.640Z,65.90
2018-01-24T13:44:07.034Z,65.30
2018-01-24T13:46:33.257Z,65.20
2018-01-24T13:49:00.188Z,65.50
2018-01-24T13:51:26.589Z,65.50
2018-01-24T13:53:53.941Z,64.90
2018-01-24T13:56:20.123Z,64.40
2018-01-24T13:58:46.361Z,64.50
2018-01-24T14:01:12.769Z,64.30
2018-01-24T14:03:38.929Z,64.00
2018-01-24T14:06:05.236Z,64.10
2018-01-24T14:08:33.274Z,64.00
2018-01-24T14:11:00.903Z,64.10
2018-01-24T14:13:27.091Z,64.00
2018-01-24T14:15:56.661Z,64.10
2018-01-24T14:18:22.912Z,64.10
2018-01-24T14:20:49.103Z,64.10
2018-01-24T14:23:17.661Z,64.90
2018-01-24T14:25:43.976Z,64.10
2018-01-24T14:28:10.884Z,64.10
2018-01-24T14:30:37.088Z,64.10
2018-01-24T14:33:03.549Z,64.10
2018-01-24T14:35:29.720Z,64.10
2018-01-24T14:37:55.936Z,64.10
2018-01-24T14:40:23.774Z,64.10
2018-01-24T14:42:50.186Z,64.10
2018-01-24T14:45:16.458Z,64.10
2018-01-24T14:47:43.542Z,64.10
2018-01-24T14:50:10.043Z,64.10
2018-01-24T14:52:36.229Z,64.10
2018-01-24T14:55:02.411Z,63.40
2018-01-24T14:57:28.800Z,63.30
2018-01-24T14:59:55.000Z,63.00
2018-01-24T15:02:21.240Z,62.80
2018-01-24T15:04:47.536Z,62.80
2018-01-24T15:07:13.701Z,62.70
2018-01-24T15:09:40.252Z,62.70
2018-01-24T15:12:10.997Z,62.30
2018-01-24T15:14:37.215Z,62.20
2018-01-24T15:17:03.403Z,62.10
2018-01-24T15:19:31.314Z,62.30
2018-01-24T15:21:58.982Z,61.70
2018-01-24T15:24:25.244Z,61.70
2018-01-24T15:26:51.426Z,61.70
2018-01-24T15:29:17.859Z,61.30
2018-01-24T15:31:44.045Z,61.40
2018-01-24T15:34:10.264Z,61.30
2018-01-24T15:36:36.548Z,60.90
2018-01-24T15:39:02.948Z,61.20
2018-01-24T15:41:29.263Z,60.90
2018-01-24T15:43:56.188Z,60.70
2018-01-24T15:46:23.215Z,60.50
2018-01-24T15:48:49.423Z,60.50
2018-01-24T15:51:15.627Z,60.60
2018-01-24T15:53:41.948Z,60.70
2018-01-24T15:56:08.164Z,60.60
2018-01-24T15:58:34.400Z,60.50
2018-01-24T16:01:00.703Z,60.20
2018-01-24T16:03:27.620Z,60.00
2018-01-24T16:05:53.801Z,59.90
2018-01-24T16:08:20.098Z,60.20
2018-01-24T16:10:46.656Z,60.30
2018-01-24T16:13:12.856Z,60.30
2018-01-24T16:15:39.100Z,60.30
2018-01-24T16:18:05.301Z,59.90
2018-01-24T16:20:31.550Z,59.70
2018-01-24T16:22:58.472Z,59.50
2018-01-24T16:25:24.940Z,59.50
2018-01-24T16:27:51.668Z,59.40
2018-01-24T16:30:17.898Z,59.70
2018-01-24T16:32:44.273Z,59.60
2018-01-24T16:35:10.440Z,59.40
2018-01-24T16:37:37.404Z,59.20
2018-01-24T16:40:03.627Z,59.20
2018-01-24T16:42:30.860Z,59.10
2018-01-24T16:44:57.016Z,59.10
2018-01-24T16:47:23.204Z,59.60
2018-01-24T16:49:49.588Z,59.40
2018-01-24T16:52:15.931Z,59.10
2018-01-24T16:54:42.120Z,59.50
2018-01-24T16:57:08.514Z,59.30
2018-01-24T16:59:34.700Z,59.10
2018-01-24T17:02:00.885Z,59.40
2018-01-24T17:04:27.550Z,59.30
2018-01-24T17:06:54.228Z,59.30
2018-01-24T17:09:20.468Z,59.30
2018-01-24T17:11:46.892Z,59.30
2018-01-24T17:14:13.223Z,59.60
2018-01-24T17:16:39.420Z,59.30
2018-01-24T17:19:05.632Z,59.40
2018-01-24T17:21:31.952Z,59.50
2018-01-24T17:23:58.168Z,59.10
2018-01-24T17:26:24.352Z,59.50
2018-01-24T17:28:51.184Z,59.50
2018-01-24T17:31:17.389Z,59.40
2018-01-24T17:33:43.577Z,59.50
2018-01-24T17:36:10.900Z,59.50
2018-01-24T17:38:37.169Z,59.90
2018-01-24T17:41:03.336Z,59.70
2018-01-24T17:43:29.670Z,59.40
2018-01-24T17:45:55.876Z,59.70
2018-01-24T17:48:23.107Z,59.60
2018-01-24T17:50:49.297Z,59.50
2018-01-24T17:53:16.496Z,59.70
2018-01-24T17:55:42.728Z,59.30
2018-01-24T17:58:08.948Z,59.80
2018-01-24T18:00:35.329Z,59.80
2018-01-24T18:03:02.255Z,59.80
2018-01-24T18:05:28.808Z,59.70
2018-01-24T18:07:54.992Z,59.60
2018-01-24T18:10:21.229Z,59.50
2018-01-24T18:12:48.342Z,59.60
2018-01-24T18:15:14.661Z,59.80
2018-01-24T18:17:40.881Z,59.60
2018-01-24T18:20:07.055Z,59.50
2018-01-24T18:25:23.934Z,59.80
2018-01-24T18:30:25.024Z,59.70
2018-01-24T18:32:51.217Z,59.70
2018-01-24T18:35:17.420Z,59.60
2018-01-24T18:37:44.475Z,59.80
2018-01-24T18:40:17.177Z,59.80
2018-01-24T18:42:44.100Z,60.20
2018-01-24T18:45:10.428Z,60.10
2018-01-24T18:47:36.638Z,60.10
2018-01-24T18:50:02.871Z,60.10
2018-01-24T18:52:29.185Z,59.70
2018-01-24T18:54:56.251Z,60.00
2018-01-24T18:57:22.465Z,60.00
2018-01-24T18:59:48.719Z,60.00
2018-01-24T19:02:15.216Z,59.70
2018-01-24T19:04:41.549Z,59.60
2018-01-24T19:07:07.794Z,59.60
2018-01-24T19:09:47.049Z,59.40
2018-01-24T19:12:13.411Z,59.30
2018-01-24T19:14:39.751Z,59.20
2018-01-24T19:17:06.204Z,59.10
2018-01-24T19:19:39.167Z,59.40
2018-01-24T19:22:05.423Z,59.20
2018-01-24T19:24:31.768Z,59.20
2018-01-24T19:29:47.701Z,59.00
2018-01-24T19:32:13.948Z,59.30
2018-01-24T19:40:08.591Z,59.10
2018-01-24T19:42:36.463Z,58.80
2018-01-24T19:45:02.874Z,58.80
2018-01-24T19:47:29.092Z,58.90
2018-01-24T19:52:37.840Z,58.80
2018-01-24T19:55:04.357Z,58.80
2018-01-24T19:57:30.636Z,58.80
2018-01-24T19:59:56.827Z,58.50
2018-01-24T20:02:23.220Z,58.90
2018-01-24T20:04:49.542Z,58.50
2018-01-24T20:10:04.728Z,58.90
2018-01-24T20:12:31.264Z,58.80
2018-01-24T20:14:57.517Z,58.50
2018-01-24T20:17:23.706Z,58.60
2018-01-24T20:19:50.111Z,59.30
2018-01-24T20:22:24.222Z,58.50
2018-01-24T20:24:50.523Z,58.50
2018-01-24T20:27:17.503Z,58.50
2018-01-24T20:29:44.022Z,58.50
2018-01-24T20:32:10.240Z,58.50
2018-01-24T20:34:36.526Z,58.20
2018-01-24T20:37:02.832Z,58.20
2018-01-24T20:39:29.081Z,58.30
2018-01-24T20:41:55.450Z,58.10
2018-01-24T20:44:22.444Z,57.90
2018-01-24T20:46:48.706Z,57.90
2018-01-24T20:49:15.081Z,57.70
2018-01-24T20:51:41.309Z,57.90
2018-01-24T20:54:07.554Z,57.70
2018-01-24T20:56:33.801Z,57.30
2018-01-24T21:01:32.685Z,57.40
2018-01-24T21:06:46.184Z,57.50
2018-01-24T21:11:47.952Z,57.30
2018-01-24T21:14:14.333Z,57.40
2018-01-24T21:16:40.746Z,57.40
2018-01-24T21:19:06.920Z,57.10
2018-01-24T21:21:33.241Z,57.40
2018-01-24T21:24:00.504Z,57.00
2018-01-24T21:26:26.908Z,57.60
2018-01-24T21:29:05.116Z,57.20
2018-01-24T21:31:43.681Z,56.90
2018-01-24T21:34:21.995Z,57.50
2018-01-24T21:37:00.465Z,57.20
2018-01-24T21:39:26.472Z,57.50
2018-01-24T21:41:52.718Z,57.40
2018-01-24T21:44:20.930Z,57.30
2018-01-24T21:46:47.158Z,57.30
2018-01-24T21:49:13.666Z,57.30
2018-01-24T21:51:40.181Z,57.30
2018-01-24T21:54:06.376Z,57.40
2018-01-24T21:56:32.790Z,57.70
2018-01-24T21:58:59.134Z,57.50
2018-01-24T22:01:26.152Z,57.20
2018-01-24T22:03:52.630Z,57.20
2018-01-24T22:06:19.528Z,56.90
2018-01-24T22:08:45.783Z,57.00
2018-01-24T22:13:51.750Z,56.20
2018-01-24T22:16:18.048Z,56.20
2018-01-24T22:18:44.614Z,56.20
2018-01-24T22:21:10.920Z,56.40
2018-01-24T22:23:37.149Z,56.30
2018-01-24T22:26:12.263Z,56.20
2018-01-24T22:28:39.053Z,56.00
2018-01-24T22:31:05.578Z,55.50
2018-01-24T22:36:04.247Z,55.50
2018-01-24T22:38:32.727Z,55.50
2018-01-24T22:40:59.269Z,54.80
2018-01-24T22:43:25.708Z,54.80
2018-01-24T22:45:52.437Z,54.70
2018-01-24T22:48:19.569Z,54.00
2018-01-24T22:50:46.916Z,53.90
2018-01-24T22:53:13.134Z,54.00
2018-01-24T22:55:44.177Z,54.00
2018-01-24T22:58:11.701Z,53.90
2018-01-24T23:00:37.963Z,53.90
2018-01-24T23:03:04.173Z,53.90
2018-01-24T23:05:33.568Z,53.90
2018-01-24T23:08:00.064Z,53.80
2018-01-24T23:10:26.431Z,53.90
2018-01-24T23:12:52.622Z,53.90
2018-01-24T23:15:19.396Z,53.90
2018-01-24T23:17:46.425Z,54.70
2018-01-24T23:20:12.759Z,53.90
2018-01-24T23:22:38.957Z,53.90
2018-01-24T23:25:05.660Z,53.80
2018-01-24T23:30:04.340Z,53.70
2018-01-24T23:32:30.632Z,53.70
2018-01-24T23:34:57.018Z,53.20
2018-01-24T23:37:23.506Z,53.30
2018-01-24T23:39:50.537Z,53.40
2018-01-24T23:42:17.538Z,53.30
2018-01-24T23:44:43.780Z,53.40
2018-01-24T23:47:10.121Z,53.50
2018-01-24T23:49:36.321Z,53.20
2018-01-24T23:52:02.562Z,53.70
2018-01-24T23:54:29.063Z,53.10
2018-01-24T23:56:55.280Z,53.60
2018-01-24T23:59:21.574Z,53.60
